Aviation Digital Data Service (ADDS)

Output produced by TAFs form (1332 UTC 06 July 2015)
found at http://aviationweather.gov/adds/tafs/
 
KGJT 061120Z 0612/0712 11007KT P6SM SCT120 
     FM061400 14006KT P6SM SCT200 
     FM061900 29006KT P6SM SCT100 
     FM062200 29008G15KT P6SM VCSH SCT090 BKN150 
     FM070200 12020KT P6SM SCT100 BKN200 
     FM070500 12006KT P6SM BKN200